Time;durP1;ratioP1;P1;durP2;ratioP2;P2;SDS_P1;SDS_P2;PMS_P1;PMS_P2;Temp;Humidity;BMP_temperature;BMP_pressure;BME280_temperature;BME280_humidity;BME280_pressure;Samples;Min_cycle;Max_cycle;Signal;HPM_P1;HPM_P2
2024/01/26 00:00:57;;;;;;;6.82;4.15;;;;;;;;;;5102727;28;20569;-80
2024/01/26 00:03:24;;;;;;;8.52;3.30;;;;;;;;;;5101541;28;20287;-80
2024/01/26 00:05:52;;;;;;;5.32;3.70;;;;;;;;;;5096143;28;20696;-80
2024/01/26 00:08:19;;;;;;;8.82;4.32;;;;;;;;;;5098607;28;20222;-80
2024/01/26 00:10:48;;;;;;;8.82;3.78;;;;;;;;;;5099591;28;20209;-79
2024/01/26 00:13:15;;;;;;;6.07;3.38;;;;;;;;;;5106222;28;20246;-80
2024/01/26 00:15:47;;;;;;;9.75;3.88;;;;;;;;;;5095828;28;20304;-80
2024/01/26 00:18:14;;;;;;;6.03;3.22;;;;;;;;;;5106552;28;20192;-79
2024/01/26 00:20:41;;;;;;;4.65;3.70;;;;;;;;;;5106880;28;20210;-80
2024/01/26 00:23:09;;;;;;;9.30;3.97;;;;;;;;;;5098600;28;20267;-80
2024/01/26 00:25:36;;;;;;;6.05;3.50;;;;;;;;;;5109345;28;20224;-79
2024/01/26 00:28:06;;;;;;;7.25;4.03;;;;;;;;;;5104686;28;20224;-79
2024/01/26 00:30:33;;;;;;;5.80;2.83;;;;;;;;;;5099104;28;20659;-79
2024/01/26 00:33:01;;;;;;;3.17;2.22;;;;;;;;;;5097525;28;20201;-80
2024/01/26 00:35:28;;;;;;;2.45;2.25;;;;;;;;;;5100904;28;20212;-80
2024/01/26 00:37:56;;;;;;;3.13;2.30;;;;;;;;;;5095889;28;20208;-80
2024/01/26 00:40:24;;;;;;;4.70;2.00;;;;;;;;;;5098510;28;20200;-81
2024/01/26 00:42:51;;;;;;;3.38;2.38;;;;;;;;;;5100114;28;20666;-80
2024/01/26 00:45:20;;;;;;;3.88;2.60;;;;;;;;;;5105213;28;20222;-80
2024/01/26 00:47:47;;;;;;;4.97;2.78;;;;;;;;;;5100764;28;20220;-80
2024/01/26 00:50:15;;;;;;;5.57;2.70;;;;;;;;;;5097549;28;20235;-79
2024/01/26 00:52:42;;;;;;;4.80;2.95;;;;;;;;;;5093980;28;20204;-79
2024/01/26 00:55:10;;;;;;;3.28;2.67;;;;;;;;;;5094075;28;20216;-79
2024/01/26 00:57:39;;;;;;;4.65;2.60;;;;;;;;;;5095762;28;20286;-80
2024/01/26 01:00:09;;;;;;;5.75;3.33;;;;;;;;;;5100716;28;20196;-78
2024/01/26 01:02:37;;;;;;;4.82;3.53;;;;;;;;;;5095740;28;20210;-78
2024/01/26 01:05:06;;;;;;;4.70;2.30;;;;;;;;;;5108661;28;20219;-78
2024/01/26 01:07:34;;;;;;;7.78;3.90;;;;;;;;;;5098143;28;20228;-80
2024/01/26 01:10:01;;;;;;;5.22;3.40;;;;;;;;;;5107834;28;20201;-80
2024/01/26 01:12:29;;;;;;;6.45;3.20;;;;;;;;;;5102793;28;20219;-80
2024/01/26 01:14:58;;;;;;;5.93;3.38;;;;;;;;;;5095547;28;20649;-80
2024/01/26 01:17:26;;;;;;;10.50;4.15;;;;;;;;;;5089850;28;20196;-79
2024/01/26 01:19:54;;;;;;;7.95;4.22;;;;;;;;;;5095066;28;20196;-80
2024/01/26 01:22:22;;;;;;;8.82;4.07;;;;;;;;;;5099616;28;20291;-80
2024/01/26 01:24:49;;;;;;;3.35;2.60;;;;;;;;;;5104040;28;20584;-79
2024/01/26 01:27:17;;;;;;;4.05;2.88;;;;;;;;;;5103513;28;20215;-79
2024/01/26 01:29:44;;;;;;;3.22;2.17;;;;;;;;;;5095732;28;20208;-79
2024/01/26 01:32:12;;;;;;;4.70;3.28;;;;;;;;;;5101083;28;20197;-79
2024/01/26 01:34:39;;;;;;;5.15;2.85;;;;;;;;;;5093096;28;20200;-79
2024/01/26 01:37:08;;;;;;;6.60;4.10;;;;;;;;;;5095816;28;20209;-79
2024/01/26 01:39:36;;;;;;;5.60;3.33;;;;;;;;;;5099730;28;20223;-78
2024/01/26 01:42:05;;;;;;;5.78;3.40;;;;;;;;;;5102314;28;20288;-79
2024/01/26 01:44:32;;;;;;;5.65;2.22;;;;;;;;;;5101449;28;20236;-80
2024/01/26 01:47:00;;;;;;;9.75;4.72;;;;;;;;;;5097745;28;20251;-80
2024/01/26 01:49:27;;;;;;;6.28;4.22;;;;;;;;;;5093731;28;20562;-79
2024/01/26 01:51:56;;;;;;;9.50;4.03;;;;;;;;;;5103846;28;20272;-80
2024/01/26 01:54:25;;;;;;;8.13;4.30;;;;;;;;;;5112459;28;20607;-79
2024/01/26 01:56:54;;;;;;;8.80;4.30;;;;;;;;;;5111131;28;20230;-80
2024/01/26 01:59:22;;;;;;;9.40;4.70;;;;;;;;;;5101568;28;20668;-78
2024/01/26 02:01:50;;;;;;;11.52;4.90;;;;;;;;;;5101691;28;20583;-79
2024/01/26 02:04:18;;;;;;;10.95;5.30;;;;;;;;;;5101991;28;20287;-80
2024/01/26 02:06:55;;;;;;;9.05;5.50;;;;;;;;;;5099638;28;20224;-79
2024/01/26 02:09:24;;;;;;;6.20;3.25;;;;;;;;;;5102040;28;20214;-80
2024/01/26 02:11:52;;;;;;;6.55;3.35;;;;;;;;;;5093977;28;20200;-80
2024/01/26 02:14:19;;;;;;;8.35;3.67;;;;;;;;;;5095863;28;20299;-79
2024/01/26 02:16:54;;;;;;;6.78;3.58;;;;;;;;;;5097698;28;20244;-79
2024/01/26 02:19:22;;;;;;;10.85;4.22;;;;;;;;;;5105788;28;20187;-78
2024/01/26 02:21:50;;;;;;;4.65;3.40;;;;;;;;;;5104157;28;20201;-79
2024/01/26 02:24:19;;;;;;;5.55;3.58;;;;;;;;;;5098586;28;20698;-80
2024/01/26 02:26:47;;;;;;;6.20;3.95;;;;;;;;;;5108107;28;20738;-79
2024/01/26 02:29:14;;;;;;;8.63;3.35;;;;;;;;;;5101133;28;20212;-80
2024/01/26 02:31:42;;;;;;;4.90;3.25;;;;;;;;;;5091868;28;20283;-80
2024/01/26 02:34:12;;;;;;;5.90;3.20;;;;;;;;;;5106846;28;20650;-80
2024/01/26 02:36:40;;;;;;;2.88;2.50;;;;;;;;;;5100530;28;20232;-79
2024/01/26 02:39:07;;;;;;;2.42;2.22;;;;;;;;;;5094905;28;20189;-79
2024/01/26 02:41:37;;;;;;;4.05;2.20;;;;;;;;;;5095851;28;20200;-79
2024/01/26 02:44:05;;;;;;;3.15;2.80;;;;;;;;;;5105566;28;20206;-79
2024/01/26 02:46:32;;;;;;;3.00;2.35;;;;;;;;;;5098140;28;20227;-80
2024/01/26 02:49:01;;;;;;;2.65;2.45;;;;;;;;;;5099486;28;20579;-79
2024/01/26 02:51:29;;;;;;;2.20;2.00;;;;;;;;;;5115907;28;20246;-80
2024/01/26 02:53:56;;;;;;;2.33;2.13;;;;;;;;;;5101350;28;20207;-81
2024/01/26 02:56:24;;;;;;;2.55;2.30;;;;;;;;;;5107468;28;20303;-81
2024/01/26 02:58:52;;;;;;;2.83;2.47;;;;;;;;;;5094168;28;20288;-80
2024/01/26 03:01:20;;;;;;;3.83;2.45;;;;;;;;;;5100390;28;20264;-78
2024/01/26 03:03:47;;;;;;;3.83;2.42;;;;;;;;;;5102367;28;20204;-79
2024/01/26 03:06:15;;;;;;;2.75;2.17;;;;;;;;;;5098028;28;20285;-80
2024/01/26 03:08:42;;;;;;;2.42;2.22;;;;;;;;;;5098912;28;20303;-81
2024/01/26 03:11:13;;;;;;;2.28;2.00;;;;;;;;;;5099118;28;20192;-80
2024/01/26 03:13:41;;;;;;;3.05;2.38;;;;;;;;;;5097032;28;20203;-79
2024/01/26 03:16:11;;;;;;;2.55;2.13;;;;;;;;;;5100867;28;20680;-79
2024/01/26 03:18:39;;;;;;;2.70;2.50;;;;;;;;;;5101848;28;20219;-80
2024/01/26 03:21:06;;;;;;;2.70;2.47;;;;;;;;;;5099455;28;20200;-79
2024/01/26 03:23:33;;;;;;;3.83;2.90;;;;;;;;;;5099369;28;20206;-78
2024/01/26 03:26:01;;;;;;;2.50;2.30;;;;;;;;;;5099754;28;20220;-80
2024/01/26 03:28:29;;;;;;;4.18;3.08;;;;;;;;;;5099745;28;20227;-80
2024/01/26 03:30:57;;;;;;;3.10;2.80;;;;;;;;;;5095665;28;20208;-80
2024/01/26 03:33:25;;;;;;;5.80;2.20;;;;;;;;;;5090313;28;20200;-79
2024/01/26 03:35:53;;;;;;;4.47;2.30;;;;;;;;;;5106881;28;20435;-80
2024/01/26 03:38:20;;;;;;;2.75;2.42;;;;;;;;;;5094520;28;20212;-80
2024/01/26 03:40:48;;;;;;;2.97;2.67;;;;;;;;;;5098951;28;20197;-80
2024/01/26 03:43:15;;;;;;;3.28;2.38;;;;;;;;;;5096453;28;20211;-81
2024/01/26 03:45:43;;;;;;;2.20;2.00;;;;;;;;;;5100172;28;20308;-81
2024/01/26 03:48:10;;;;;;;2.85;2.50;;;;;;;;;;5096402;28;20196;-80
2024/01/26 03:50:39;;;;;;;1.83;1.73;;;;;;;;;;5091203;28;20735;-81
2024/01/26 03:53:06;;;;;;;2.22;2.00;;;;;;;;;;5086981;28;20300;-81
2024/01/26 03:55:34;;;;;;;2.45;2.20;;;;;;;;;;5098305;28;20242;-79
2024/01/26 03:58:01;;;;;;;4.22;2.10;;;;;;;;;;5097580;28;20215;-80
2024/01/26 04:00:29;;;;;;;2.35;2.15;;;;;;;;;;5098931;28;20212;-80
2024/01/26 04:02:56;;;;;;;2.25;2.05;;;;;;;;;;5097120;28;20200;-80
2024/01/26 04:05:24;;;;;;;2.60;1.75;;;;;;;;;;5086411;28;20228;-81
2024/01/26 04:07:53;;;;;;;2.63;1.98;;;;;;;;;;5090775;28;20275;-81
2024/01/26 04:10:20;;;;;;;2.33;2.15;;;;;;;;;;5093141;28;20220;-79
2024/01/26 04:12:48;;;;;;;1.90;1.80;;;;;;;;;;5097548;28;20295;-81
2024/01/26 04:15:15;;;;;;;2.33;2.05;;;;;;;;;;5095970;28;20224;-80
2024/01/26 04:17:43;;;;;;;2.25;2.05;;;;;;;;;;5098653;28;20228;-80
2024/01/26 04:20:11;;;;;;;3.13;2.40;;;;;;;;;;5095008;28;20188;-81
2024/01/26 04:22:38;;;;;;;2.15;1.92;;;;;;;;;;5097195;28;20259;-80
2024/01/26 04:25:09;;;;;;;2.00;1.90;;;;;;;;;;5090689;28;20620;-80
2024/01/26 04:27:38;;;;;;;1.70;1.60;;;;;;;;;;5087934;28;20272;-80
2024/01/26 04:30:07;;;;;;;2.60;2.28;;;;;;;;;;5094244;28;20318;-80
2024/01/26 04:32:37;;;;;;;1.30;1.20;;;;;;;;;;5090342;28;20224;-80
2024/01/26 04:35:05;;;;;;;2.22;1.92;;;;;;;;;;5097276;28;20298;-80
2024/01/26 04:37:32;;;;;;;1.48;1.38;;;;;;;;;;5095305;28;20678;-81
2024/01/26 04:40:00;;;;;;;1.80;1.65;;;;;;;;;;5083193;28;20243;-80
2024/01/26 04:42:28;;;;;;;1.50;1.40;;;;;;;;;;5089769;28;20214;-79
2024/01/26 04:44:56;;;;;;;1.70;1.60;;;;;;;;;;5092136;28;20203;-79
2024/01/26 04:47:24;;;;;;;1.75;1.60;;;;;;;;;;5096691;28;20542;-78
2024/01/26 04:49:51;;;;;;;2.00;1.77;;;;;;;;;;5090708;28;20246;-80
2024/01/26 04:52:19;;;;;;;1.55;1.45;;;;;;;;;;5095893;28;20716;-81
2024/01/26 04:54:46;;;;;;;2.15;2.00;;;;;;;;;;5093778;28;20201;-81
2024/01/26 04:57:14;;;;;;;1.67;1.40;;;;;;;;;;5098050;28;20230;-80
2024/01/26 04:59:43;;;;;;;1.63;1.52;;;;;;;;;;5096456;28;20282;-80
2024/01/26 05:02:10;;;;;;;1.40;1.30;;;;;;;;;;5090479;28;20200;-80
2024/01/26 05:04:38;;;;;;;1.50;1.40;;;;;;;;;;5090704;28;20201;-81
2024/01/26 05:07:05;;;;;;;1.20;1.20;;;;;;;;;;5093625;28;20652;-79
2024/01/26 05:09:33;;;;;;;1.50;1.40;;;;;;;;;;5089123;28;20294;-81
2024/01/26 05:12:00;;;;;;;1.25;1.15;;;;;;;;;;5089934;28;20246;-80
2024/01/26 05:14:28;;;;;;;1.80;1.58;;;;;;;;;;5094887;28;20235;-79
2024/01/26 05:16:57;;;;;;;1.58;1.48;;;;;;;;;;5086103;28;20227;-79
2024/01/26 05:19:24;;;;;;;1.70;1.60;;;;;;;;;;5090737;28;20198;-80
2024/01/26 05:21:51;;;;;;;1.25;1.15;;;;;;;;;;5096831;28;20291;-79
2024/01/26 05:24:19;;;;;;;1.50;1.40;;;;;;;;;;5096060;28;20196;-80
2024/01/26 05:26:46;;;;;;;1.63;1.52;;;;;;;;;;5096391;28;20216;-81
2024/01/26 05:29:14;;;;;;;1.70;1.60;;;;;;;;;;5090251;28;20201;-81
2024/01/26 05:31:42;;;;;;;1.40;1.30;;;;;;;;;;5095429;28;20228;-80
2024/01/26 05:34:11;;;;;;;1.40;1.30;;;;;;;;;;5093044;28;20287;-80
2024/01/26 05:36:42;;;;;;;1.70;1.60;;;;;;;;;;5097004;28;20758;-80
2024/01/26 05:39:10;;;;;;;1.83;1.73;;;;;;;;;;5097530;28;20197;-80
2024/01/26 05:41:38;;;;;;;1.83;1.60;;;;;;;;;;5096796;28;20211;-80
2024/01/26 05:44:05;;;;;;;1.50;1.40;;;;;;;;;;5091627;28;20283;-80
2024/01/26 05:46:33;;;;;;;1.40;1.30;;;;;;;;;;5095189;28;20243;-80
2024/01/26 05:49:00;;;;;;;1.40;1.30;;;;;;;;;;5097814;28;20647;-80
2024/01/26 05:51:29;;;;;;;2.15;2.05;;;;;;;;;;5089603;28;20245;-80
2024/01/26 05:53:57;;;;;;;2.42;2.22;;;;;;;;;;5096683;28;20232;-80
2024/01/26 05:56:24;;;;;;;2.00;1.90;;;;;;;;;;5096291;28;20212;-79
2024/01/26 05:58:52;;;;;;;2.15;2.05;;;;;;;;;;5095740;28;20283;-79
2024/01/26 06:01:20;;;;;;;1.58;1.50;;;;;;;;;;5097743;28;20200;-80
2024/01/26 06:03:47;;;;;;;1.55;1.45;;;;;;;;;;5097040;28;20211;-81
2024/01/26 06:06:16;;;;;;;1.83;1.70;;;;;;;;;;5095935;28;20310;-80
2024/01/26 06:08:45;;;;;;;2.08;1.98;;;;;;;;;;5089602;28;20196;-80
2024/01/26 06:11:12;;;;;;;2.42;2.22;;;;;;;;;;5102678;28;20243;-79
2024/01/26 06:13:41;;;;;;;1.98;1.80;;;;;;;;;;5100036;28;20208;-80
2024/01/26 06:16:09;;;;;;;1.90;1.80;;;;;;;;;;5100248;28;20216;-80
2024/01/26 06:18:36;;;;;;;2.35;1.80;;;;;;;;;;5105534;28;20203;-79
2024/01/26 06:21:04;;;;;;;2.60;2.40;;;;;;;;;;5101422;28;20207;-81
2024/01/26 06:23:31;;;;;;;2.00;1.90;;;;;;;;;;5102994;28;20613;-79
2024/01/26 06:26:01;;;;;;;2.30;1.92;;;;;;;;;;5106069;28;20213;-80
2024/01/26 06:28:28;;;;;;;2.20;2.10;;;;;;;;;;5100024;28;20620;-79
2024/01/26 06:30:56;;;;;;;2.25;2.05;;;;;;;;;;5098493;28;20226;-80
2024/01/26 06:33:23;;;;;;;2.55;2.17;;;;;;;;;;5099785;28;20208;-81
2024/01/26 06:35:51;;;;;;;2.03;1.92;;;;;;;;;;5100910;28;20219;-81
2024/01/26 06:38:18;;;;;;;4.75;2.88;;;;;;;;;;5086269;28;20750;-82
2024/01/26 06:40:46;;;;;;;2.53;2.20;;;;;;;;;;5096330;28;20211;-81
2024/01/26 06:43:16;;;;;;;2.00;1.90;;;;;;;;;;5108283;28;20192;-80
2024/01/26 06:45:44;;;;;;;2.40;2.08;;;;;;;;;;5103431;28;20243;-80
2024/01/26 06:48:12;;;;;;;2.20;2.00;;;;;;;;;;5092473;28;20543;-80
2024/01/26 06:50:39;;;;;;;1.75;1.65;;;;;;;;;;5103757;28;20220;-80
2024/01/26 06:53:07;;;;;;;3.20;3.00;;;;;;;;;;5100369;28;20200;-79
2024/01/26 06:55:34;;;;;;;1.75;1.65;;;;;;;;;;5093069;28;20221;-81
2024/01/26 06:58:02;;;;;;;2.67;2.10;;;;;;;;;;5091535;28;20236;-79
2024/01/26 07:00:31;;;;;;;1.58;1.48;;;;;;;;;;5089512;28;20210;-80
2024/01/26 07:02:58;;;;;;;1.92;1.83;;;;;;;;;;5097205;28;20288;-80
2024/01/26 07:05:26;;;;;;;1.73;1.63;;;;;;;;;;5093829;28;20232;-79
2024/01/26 07:07:54;;;;;;;2.13;2.03;;;;;;;;;;5099376;28;20260;-80
2024/01/26 07:10:22;;;;;;;2.03;1.92;;;;;;;;;;5101371;28;20223;-80
2024/01/26 07:12:49;;;;;;;2.00;1.90;;;;;;;;;;5094953;28;20204;-81
2024/01/26 07:15:17;;;;;;;1.92;1.73;;;;;;;;;;5090172;28;20303;-81
2024/01/26 07:17:46;;;;;;;1.67;1.58;;;;;;;;;;5098881;28;20651;-80
2024/01/26 07:20:13;;;;;;;1.73;1.63;;;;;;;;;;5090057;28;20656;-81
2024/01/26 07:22:41;;;;;;;1.88;1.73;;;;;;;;;;5096877;28;20193;-81
2024/01/26 07:25:11;;;;;;;1.60;1.50;;;;;;;;;;5093889;28;20216;-79
2024/01/26 07:27:39;;;;;;;1.90;1.80;;;;;;;;;;5100197;28;20208;-80
2024/01/26 07:30:08;;;;;;;1.88;1.77;;;;;;;;;;5097056;28;20236;-80
2024/01/26 07:32:36;;;;;;;2.30;1.80;;;;;;;;;;5092858;28;20290;-80
2024/01/26 07:35:06;;;;;;;2.38;1.98;;;;;;;;;;5099204;28;20706;-80
2024/01/26 07:37:33;;;;;;;2.47;1.92;;;;;;;;;;5091962;28;20220;-80
2024/01/26 07:40:04;;;;;;;2.85;1.63;;;;;;;;;;5099565;28;20655;-80
2024/01/26 07:42:31;;;;;;;1.80;1.70;;;;;;;;;;5117533;28;20278;-80
2024/01/26 07:44:59;;;;;;;1.80;1.70;;;;;;;;;;5117637;28;20589;-80
2024/01/26 07:47:26;;;;;;;1.90;1.77;;;;;;;;;;5111462;28;20195;-80
2024/01/26 07:49:54;;;;;;;1.70;1.60;;;;;;;;;;5107738;28;20192;-81
2024/01/26 07:52:23;;;;;;;2.28;2.08;;;;;;;;;;5116250;28;20219;-81
2024/01/26 07:54:52;;;;;;;1.88;1.77;;;;;;;;;;5116403;28;20200;-81
2024/01/26 07:57:20;;;;;;;1.85;1.75;;;;;;;;;;5102032;28;20234;-80
2024/01/26 07:59:49;;;;;;;1.77;1.67;;;;;;;;;;5116569;28;20247;-81
2024/01/26 08:02:17;;;;;;;5.25;3.58;;;;;;;;;;5118154;28;20200;-81
2024/01/26 08:04:44;;;;;;;1.90;1.80;;;;;;;;;;5115968;28;20278;-81
2024/01/26 08:07:12;;;;;;;3.03;2.15;;;;;;;;;;5088758;28;20228;-81
2024/01/26 08:09:40;;;;;;;2.30;2.10;;;;;;;;;;5113042;28;20295;-79
2024/01/26 08:12:08;;;;;;;2.30;2.10;;;;;;;;;;5109480;28;20315;-81
2024/01/26 08:14:36;;;;;;;2.08;1.98;;;;;;;;;;5097110;28;20197;-80
2024/01/26 08:17:03;;;;;;;2.15;1.95;;;;;;;;;;5113841;28;20677;-80
2024/01/26 08:19:31;;;;;;;2.10;1.90;;;;;;;;;;5103972;28;20647;-80
2024/01/26 08:21:58;;;;;;;1.48;1.38;;;;;;;;;;5114492;28;20271;-80
2024/01/26 08:24:26;;;;;;;2.90;2.00;;;;;;;;;;5111762;28;20204;-79
2024/01/26 08:26:55;;;;;;;2.70;2.50;;;;;;;;;;5110960;28;20215;-81
2024/01/26 08:29:26;;;;;;;2.85;2.28;;;;;;;;;;5108322;28;20192;-80
2024/01/26 08:31:53;;;;;;;1.98;1.80;;;;;;;;;;5091797;28;20219;-80
2024/01/26 08:34:21;;;;;;;2.38;1.90;;;;;;;;;;5109796;28;20197;-81
2024/01/26 08:36:48;;;;;;;2.00;1.80;;;;;;;;;;5069233;28;1165124;-81
2024/01/26 08:39:16;;;;;;;2.33;1.95;;;;;;;;;;5111003;28;20206;-81
2024/01/26 08:41:44;;;;;;;1.90;1.80;;;;;;;;;;5110822;28;20227;-79
2024/01/26 08:44:13;;;;;;;2.10;1.90;;;;;;;;;;5108085;28;20199;-79
2024/01/26 08:46:40;;;;;;;1.80;1.70;;;;;;;;;;5102435;28;20631;-79
2024/01/26 08:49:08;;;;;;;1.63;1.52;;;;;;;;;;5104500;28;20283;-79
2024/01/26 08:51:36;;;;;;;2.65;2.17;;;;;;;;;;5113167;28;20287;-78
2024/01/26 08:54:03;;;;;;;2.00;1.85;;;;;;;;;;5110787;28;20211;-79
2024/01/26 08:56:32;;;;;;;3.88;2.00;;;;;;;;;;5110959;28;20280;-79
2024/01/26 08:58:59;;;;;;;2.20;2.10;;;;;;;;;;5085330;28;20214;-78
2024/01/26 09:01:28;;;;;;;1.90;1.80;;;;;;;;;;5091330;28;20200;-79
2024/01/26 09:03:55;;;;;;;2.38;2.13;;;;;;;;;;5101947;28;20723;-78
2024/01/26 09:06:23;;;;;;;2.35;2.20;;;;;;;;;;5103372;28;20287;-78
2024/01/26 09:08:50;;;;;;;1.95;1.85;;;;;;;;;;5107095;28;20275;-79
2024/01/26 09:11:18;;;;;;;2.13;1.92;;;;;;;;;;5108221;28;20275;-79
2024/01/26 09:13:45;;;;;;;1.85;1.63;;;;;;;;;;5107371;28;20575;-77
2024/01/26 09:16:12;;;;;;;1.38;1.27;;;;;;;;;;5097817;28;20223;-78
2024/01/26 09:18:41;;;;;;;3.38;2.00;;;;;;;;;;5101209;28;20204;-81
2024/01/26 09:21:11;;;;;;;1.80;1.70;;;;;;;;;;5109572;28;20207;-80
2024/01/26 09:23:40;;;;;;;2.50;2.30;;;;;;;;;;5109602;28;20692;-78
2024/01/26 09:26:07;;;;;;;2.00;1.90;;;;;;;;;;5109731;28;20231;-79
2024/01/26 09:28:35;;;;;;;2.10;1.90;;;;;;;;;;5109356;28;20217;-79
2024/01/26 09:31:02;;;;;;;1.92;1.80;;;;;;;;;;5103548;28;20239;-79
2024/01/26 09:33:30;;;;;;;2.05;1.92;;;;;;;;;;5113013;28;20227;-79
2024/01/26 09:35:59;;;;;;;1.70;1.60;;;;;;;;;;5113013;28;20742;-78
2024/01/26 09:38:26;;;;;;;1.95;1.85;;;;;;;;;;5114850;28;20207;-77
2024/01/26 09:40:54;;;;;;;1.63;1.52;;;;;;;;;;5103171;28;20729;-79
2024/01/26 09:43:21;;;;;;;2.45;2.30;;;;;;;;;;5109473;28;20204;-77
2024/01/26 09:45:52;;;;;;;1.90;1.80;;;;;;;;;;5112976;28;20781;-78
2024/01/26 09:48:21;;;;;;;1.48;1.23;;;;;;;;;;5109755;28;20210;-80
2024/01/26 09:50:51;;;;;;;1.92;1.70;;;;;;;;;;5117397;28;20219;-79
2024/01/26 09:53:20;;;;;;;1.60;1.50;;;;;;;;;;5118429;28;20229;-80
2024/01/26 09:55:48;;;;;;;1.55;1.45;;;;;;;;;;5106222;28;20319;-80
2024/01/26 09:58:15;;;;;;;1.20;1.20;;;;;;;;;;5106330;28;20667;-77
2024/01/26 10:00:45;;;;;;;1.10;1.10;;;;;;;;;;5107961;28;20201;-79
2024/01/26 10:03:12;;;;;;;3.67;2.75;;;;;;;;;;5088246;28;20201;-80
2024/01/26 10:05:40;;;;;;;1.25;1.20;;;;;;;;;;5101799;28;20314;-80
2024/01/26 10:08:11;;;;;;;1.67;1.00;;;;;;;;;;5109004;28;20243;-78
2024/01/26 10:10:40;;;;;;;1.17;1.10;;;;;;;;;;5110465;28;20246;-80
2024/01/26 10:13:08;;;;;;;1.10;1.10;;;;;;;;;;5100806;28;20223;-80
2024/01/26 10:15:36;;;;;;;1.08;1.05;;;;;;;;;;5110350;28;20220;-81
2024/01/26 10:18:03;;;;;;;1.20;1.20;;;;;;;;;;5106916;28;20758;-80
2024/01/26 10:20:31;;;;;;;1.33;1.23;;;;;;;;;;5102499;28;20574;-80
2024/01/26 10:22:58;;;;;;;1.30;1.20;;;;;;;;;;5115177;28;20208;-80
2024/01/26 10:25:26;;;;;;;1.27;1.27;;;;;;;;;;5113855;28;20228;-80
2024/01/26 10:27:55;;;;;;;1.00;1.00;;;;;;;;;;5099361;28;20206;-80
2024/01/26 10:30:22;;;;;;;0.93;0.93;;;;;;;;;;5096849;28;20290;-81
2024/01/26 10:32:51;;;;;;;1.42;1.20;;;;;;;;;;5109052;28;20223;-81
2024/01/26 10:35:20;;;;;;;1.10;1.10;;;;;;;;;;5106276;28;20307;-81
2024/01/26 10:37:47;;;;;;;1.00;1.00;;;;;;;;;;5109537;28;20208;-81
2024/01/26 10:40:19;;;;;;;0.90;0.90;;;;;;;;;;5106846;28;20249;-81
2024/01/26 10:42:47;;;;;;;0.98;0.98;;;;;;;;;;5110135;28;20643;-81
2024/01/26 10:45:17;;;;;;;0.80;0.80;;;;;;;;;;5111544;28;20220;-81
2024/01/26 10:47:44;;;;;;;1.02;1.02;;;;;;;;;;5105313;28;20292;-81
2024/01/26 10:50:12;;;;;;;0.70;0.70;;;;;;;;;;5101240;28;20204;-81
2024/01/26 10:52:40;;;;;;;0.60;0.60;;;;;;;;;;5103975;28;20295;-81
2024/01/26 10:55:08;;;;;;;1.00;1.00;;;;;;;;;;5102220;28;20232;-80
2024/01/26 10:57:36;;;;;;;0.75;0.75;;;;;;;;;;5105538;28;20291;-80
2024/01/26 11:00:06;;;;;;;0.80;0.80;;;;;;;;;;5102976;28;20254;-81
2024/01/26 11:02:36;;;;;;;0.80;0.80;;;;;;;;;;5102227;28;20226;-82
2024/01/26 11:05:07;;;;;;;0.88;0.88;;;;;;;;;;5101038;28;20290;-80
2024/01/26 11:07:37;;;;;;;0.88;0.70;;;;;;;;;;5099111;28;20200;-81
2024/01/26 11:10:07;;;;;;;0.70;0.70;;;;;;;;;;5104471;28;20202;-81
2024/01/26 11:12:36;;;;;;;0.80;0.80;;;;;;;;;;5114589;28;20209;-79
2024/01/26 11:15:08;;;;;;;0.60;0.60;;;;;;;;;;5108574;28;20242;-81
2024/01/26 11:17:46;;;;;;;0.65;0.65;;;;;;;;;;5108562;28;20204;-80
2024/01/26 11:20:18;;;;;;;1.00;1.00;;;;;;;;;;5114269;28;20231;-81
2024/01/26 11:22:45;;;;;;;0.73;0.73;;;;;;;;;;5107002;28;20225;-81
2024/01/26 11:25:21;;;;;;;1.40;0.70;;;;;;;;;;5104980;28;20311;-81
2024/01/26 11:27:57;;;;;;;0.55;0.55;;;;;;;;;;5107707;28;20211;-80
2024/01/26 11:30:25;;;;;;;0.70;0.70;;;;;;;;;;5108254;28;20292;-81
2024/01/26 11:32:54;;;;;;;0.60;0.60;;;;;;;;;;5110548;28;20208;-81
2024/01/26 11:35:21;;;;;;;0.70;0.70;;;;;;;;;;5109961;28;20256;-80
2024/01/26 11:37:51;;;;;;;0.88;0.88;;;;;;;;;;5101434;28;20310;-81
2024/01/26 11:40:20;;;;;;;1.15;0.70;;;;;;;;;;5109446;28;20206;-81
2024/01/26 11:42:48;;;;;;;2.45;0.90;;;;;;;;;;5112022;28;20208;-82
2024/01/26 11:45:36;;;;;;;0.77;0.77;;;;;;;;;;5109727;28;20253;-81
2024/01/26 11:48:08;;;;;;;0.50;0.50;;;;;;;;;;5116672;28;20213;-81
2024/01/26 11:50:37;;;;;;;0.60;0.60;;;;;;;;;;5108026;28;20272;-81
2024/01/26 11:53:05;;;;;;;0.55;0.55;;;;;;;;;;5112565;28;20290;-81
2024/01/26 11:55:32;;;;;;;0.52;0.52;;;;;;;;;;5105742;28;20242;-81
2024/01/26 11:58:00;;;;;;;0.70;0.70;;;;;;;;;;5104580;28;20196;-81
2024/01/26 12:00:29;;;;;;;0.60;0.60;;;;;;;;;;5104738;28;20226;-81
2024/01/26 12:02:57;;;;;;;0.52;0.52;;;;;;;;;;5101129;28;20211;-81
2024/01/26 12:05:27;;;;;;;0.88;0.88;;;;;;;;;;5102867;28;20283;-82
2024/01/26 12:07:55;;;;;;;0.50;0.50;;;;;;;;;;5094290;28;20611;-81
2024/01/26 12:10:23;;;;;;;0.57;0.57;;;;;;;;;;5105491;28;20204;-81
2024/01/26 12:12:51;;;;;;;0.60;0.60;;;;;;;;;;5108201;28;20294;-80
2024/01/26 12:15:19;;;;;;;0.60;0.60;;;;;;;;;;5105311;28;20236;-81
2024/01/26 12:17:49;;;;;;;0.60;0.60;;;;;;;;;;5112026;28;20286;-81
2024/01/26 12:20:16;;;;;;;0.60;0.60;;;;;;;;;;5105899;28;20216;-80
2024/01/26 12:22:46;;;;;;;0.60;0.60;;;;;;;;;;5101448;28;20571;-81
2024/01/26 12:25:15;;;;;;;0.60;0.60;;;;;;;;;;5118867;28;20216;-80
2024/01/26 12:27:42;;;;;;;0.77;0.77;;;;;;;;;;5110785;28;20214;-80
2024/01/26 12:30:11;;;;;;;0.60;0.60;;;;;;;;;;5099474;28;20582;-81
2024/01/26 12:32:40;;;;;;;0.85;0.57;;;;;;;;;;5116932;28;20204;-81
2024/01/26 12:35:08;;;;;;;0.63;0.63;;;;;;;;;;5103732;28;20291;-82
2024/01/26 12:37:36;;;;;;;0.57;0.57;;;;;;;;;;5103134;28;20909;-81
2024/01/26 12:40:06;;;;;;;0.85;0.85;;;;;;;;;;5107158;28;20252;-80
2024/01/26 12:42:34;;;;;;;0.80;0.80;;;;;;;;;;5111307;28;20199;-81
2024/01/26 12:45:01;;;;;;;0.80;0.80;;;;;;;;;;5108119;28;20231;-80
2024/01/26 12:47:29;;;;;;;0.60;0.60;;;;;;;;;;5105978;28;20648;-80
2024/01/26 12:49:56;;;;;;;0.35;0.35;;;;;;;;;;5099694;28;20242;-82
2024/01/26 12:52:24;;;;;;;0.50;0.50;;;;;;;;;;5105529;28;20286;-81
2024/01/26 12:54:54;;;;;;;0.63;0.52;;;;;;;;;;5095830;28;20231;-81
2024/01/26 12:57:23;;;;;;;0.60;0.60;;;;;;;;;;5097378;28;20204;-82
2024/01/26 12:59:51;;;;;;;0.50;0.50;;;;;;;;;;5100320;28;20200;-81
2024/01/26 13:02:19;;;;;;;0.47;0.40;;;;;;;;;;5103869;28;20226;-84
2024/01/26 13:04:49;;;;;;;0.68;0.40;;;;;;;;;;5103073;28;20204;-83
2024/01/26 13:07:17;;;;;;;0.50;0.50;;;;;;;;;;5097362;28;20655;-83
2024/01/26 13:09:44;;;;;;;1.30;0.70;;;;;;;;;;5095733;28;20650;-83
2024/01/26 13:12:12;;;;;;;0.50;0.50;;;;;;;;;;5098649;28;20210;-82
2024/01/26 13:14:41;;;;;;;0.45;0.45;;;;;;;;;;5098607;28;20251;-82
2024/01/26 13:17:09;;;;;;;0.52;0.52;;;;;;;;;;5102669;28;20203;-83
2024/01/26 13:19:37;;;;;;;0.43;0.43;;;;;;;;;;5113176;28;20214;-82
2024/01/26 13:22:05;;;;;;;0.20;0.20;;;;;;;;;;5102687;28;20312;-82
2024/01/26 13:24:34;;;;;;;0.40;0.40;;;;;;;;;;5113944;28;20204;-82
2024/01/26 13:27:01;;;;;;;0.50;0.50;;;;;;;;;;5117463;28;20234;-82
2024/01/26 13:29:29;;;;;;;0.70;0.70;;;;;;;;;;5118010;28;20290;-82
2024/01/26 13:31:58;;;;;;;0.55;0.55;;;;;;;;;;5105309;28;20210;-83
2024/01/26 13:34:25;;;;;;;0.80;0.50;;;;;;;;;;5104031;28;20224;-83
2024/01/26 13:36:53;;;;;;;7.78;1.02;;;;;;;;;;5096845;28;20233;-81
2024/01/26 13:39:20;;;;;;;1.23;0.60;;;;;;;;;;5102918;28;20204;-82
2024/01/26 13:41:47;;;;;;;0.82;0.70;;;;;;;;;;5107333;28;20390;-81
2024/01/26 13:44:15;;;;;;;0.50;0.50;;;;;;;;;;5117465;28;20668;-83
2024/01/26 13:46:44;;;;;;;3.00;1.25;;;;;;;;;;5114776;28;20223;-81
2024/01/26 13:49:13;;;;;;;2.40;1.15;;;;;;;;;;5098763;28;20250;-83
2024/01/26 13:51:40;;;;;;;0.82;0.82;;;;;;;;;;5104016;28;20205;-83
2024/01/26 13:54:07;;;;;;;1.25;0.80;;;;;;;;;;5107362;28;20204;-83
2024/01/26 13:56:35;;;;;;;4.20;0.95;;;;;;;;;;5099770;28;20235;-83
2024/01/26 13:59:04;;;;;;;1.27;0.77;;;;;;;;;;5100635;28;20653;-81
2024/01/26 14:01:33;;;;;;;0.88;0.70;;;;;;;;;;5104981;28;20207;-82
2024/01/26 14:04:01;;;;;;;1.50;0.93;;;;;;;;;;5105046;28;20200;-83
2024/01/26 14:06:30;;;;;;;2.05;1.02;;;;;;;;;;5104830;28;20242;-83
2024/01/26 14:08:57;;;;;;;1.85;0.90;;;;;;;;;;5112688;28;20282;-82
2024/01/26 14:11:24;;;;;;;2.13;0.90;;;;;;;;;;5099917;28;20214;-82
2024/01/26 14:13:52;;;;;;;1.30;0.98;;;;;;;;;;5114092;28;20204;-82
2024/01/26 14:16:19;;;;;;;1.73;1.00;;;;;;;;;;5116493;28;20223;-82
2024/01/26 14:18:47;;;;;;;1.23;0.88;;;;;;;;;;5114275;28;20222;-82
2024/01/26 14:21:14;;;;;;;1.67;1.20;;;;;;;;;;5104548;28;20214;-82
2024/01/26 14:23:43;;;;;;;4.50;1.65;;;;;;;;;;5105373;28;20218;-83
2024/01/26 14:26:11;;;;;;;2.38;1.30;;;;;;;;;;5104812;28;20281;-81
2024/01/26 14:28:39;;;;;;;1.45;1.00;;;;;;;;;;5096975;28;20205;-82
2024/01/26 14:31:06;;;;;;;5.57;1.02;;;;;;;;;;5104422;28;20208;-81
2024/01/26 14:33:33;;;;;;;2.50;0.95;;;;;;;;;;5107192;28;20643;-81
2024/01/26 14:36:02;;;;;;;2.08;1.05;;;;;;;;;;5106165;28;20232;-81
2024/01/26 14:38:30;;;;;;;2.30;1.08;;;;;;;;;;5110251;28;20291;-81
2024/01/26 14:40:58;;;;;;;1.08;0.98;;;;;;;;;;5111617;28;20242;-81
2024/01/26 14:43:26;;;;;;;7.05;1.88;;;;;;;;;;5118163;28;20553;-81
2024/01/26 14:45:54;;;;;;;2.55;1.10;;;;;;;;;;5115606;28;20223;-81
2024/01/26 14:48:21;;;;;;;3.47;1.38;;;;;;;;;;5109950;28;20210;-81